sensor_id;sensor_type;location;lat;lon;timestamp;P1;durP1;ratioP1;P2;durP2;ratioP2
29688;SDS011;16600;47.444;8.334;2023-07-29T00:00:47;6.72;;;4.60;;
29688;SDS011;16600;47.444;8.334;2023-07-29T00:03:15;5.65;;;4.88;;
29688;SDS011;16600;47.444;8.334;2023-07-29T00:08:07;7.05;;;5.07;;
29688;SDS011;16600;47.444;8.334;2023-07-29T00:10:35;6.57;;;5.00;;
29688;SDS011;16600;47.444;8.334;2023-07-29T00:13:01;7.60;;;5.60;;
29688;SDS011;16600;47.444;8.334;2023-07-29T00:17:53;8.05;;;4.75;;
29688;SDS011;16600;47.444;8.334;2023-07-29T00:20:19;6.72;;;5.47;;
29688;SDS011;16600;47.444;8.334;2023-07-29T00:22:45;8.48;;;5.90;;
29688;SDS011;16600;47.444;8.334;2023-07-29T00:25:11;7.43;;;6.32;;
29688;SDS011;16600;47.444;8.334;2023-07-29T00:27:37;11.18;;;6.53;;
29688;SDS011;16600;47.444;8.334;2023-07-29T00:30:03;9.52;;;5.50;;
29688;SDS011;16600;47.444;8.334;2023-07-29T00:32:30;6.15;;;5.55;;
29688;SDS011;16600;47.444;8.334;2023-07-29T00:34:59;7.53;;;5.80;;
29688;SDS011;16600;47.444;8.334;2023-07-29T00:37:26;5.75;;;5.25;;
29688;SDS011;16600;47.444;8.334;2023-07-29T00:42:17;7.13;;;6.53;;
29688;SDS011;16600;47.444;8.334;2023-07-29T00:47:08;9.82;;;6.60;;
29688;SDS011;16600;47.444;8.334;2023-07-29T00:49:33;10.82;;;5.85;;
29688;SDS011;16600;47.444;8.334;2023-07-29T00:51:59;9.60;;;5.32;;
29688;SDS011;16600;47.444;8.334;2023-07-29T00:54:25;7.28;;;6.57;;
29688;SDS011;16600;47.444;8.334;2023-07-29T00:56:50;9.02;;;6.88;;
29688;SDS011;16600;47.444;8.334;2023-07-29T04:03:01;11.17;;;8.77;;
29688;SDS011;16600;47.444;8.334;2023-07-29T04:07:53;16.52;;;14.30;;
29688;SDS011;16600;47.444;8.334;2023-07-29T04:12:45;12.05;;;10.85;;
29688;SDS011;16600;47.444;8.334;2023-07-29T04:17:36;29.88;;;20.52;;
29688;SDS011;16600;47.444;8.334;2023-07-29T04:20:03;26.60;;;20.23;;
29688;SDS011;16600;47.444;8.334;2023-07-29T04:22:33;21.33;;;19.02;;
29688;SDS011;16600;47.444;8.334;2023-07-29T04:24:59;22.88;;;18.17;;
29688;SDS011;16600;47.444;8.334;2023-07-29T04:27:26;18.98;;;14.88;;
29688;SDS011;16600;47.444;8.334;2023-07-29T04:29:52;28.55;;;17.38;;
29688;SDS011;16600;47.444;8.334;2023-07-29T04:34:43;19.05;;;16.00;;
29688;SDS011;16600;47.444;8.334;2023-07-29T04:37:09;18.38;;;14.98;;
29688;SDS011;16600;47.444;8.334;2023-07-29T04:39:35;14.68;;;10.23;;
29688;SDS011;16600;47.444;8.334;2023-07-29T04:42:01;18.73;;;16.75;;
29688;SDS011;16600;47.444;8.334;2023-07-29T04:44:27;16.35;;;13.02;;
29688;SDS011;16600;47.444;8.334;2023-07-29T04:46:53;21.02;;;15.65;;
29688;SDS011;16600;47.444;8.334;2023-07-29T04:49:19;15.77;;;14.27;;
29688;SDS011;16600;47.444;8.334;2023-07-29T04:54:11;17.30;;;15.43;;
29688;SDS011;16600;47.444;8.334;2023-07-29T04:56:37;14.38;;;12.98;;
29688;SDS011;16600;47.444;8.334;2023-07-29T04:59:03;13.10;;;11.77;;
29688;SDS011;16600;47.444;8.334;2023-07-29T05:01:29;15.60;;;11.38;;
29688;SDS011;16600;47.444;8.334;2023-07-29T05:03:58;18.27;;;11.30;;
29688;SDS011;16600;47.444;8.334;2023-07-29T05:06:27;13.35;;;11.98;;
29688;SDS011;16600;47.444;8.334;2023-07-29T05:08:54;10.75;;;9.68;;
29688;SDS011;16600;47.444;8.334;2023-07-29T05:11:20;9.27;;;8.30;;
29688;SDS011;16600;47.444;8.334;2023-07-29T05:13:47;11.70;;;10.50;;
29688;SDS011;16600;47.444;8.334;2023-07-29T05:16:13;9.40;;;8.30;;
29688;SDS011;16600;47.444;8.334;2023-07-29T05:18:39;11.23;;;10.13;;
29688;SDS011;16600;47.444;8.334;2023-07-29T05:21:05;11.52;;;9.60;;
29688;SDS011;16600;47.444;8.334;2023-07-29T05:23:31;11.88;;;10.13;;
29688;SDS011;16600;47.444;8.334;2023-07-29T05:25:57;10.05;;;8.43;;
29688;SDS011;16600;47.444;8.334;2023-07-29T05:28:23;10.48;;;9.43;;
29688;SDS011;16600;47.444;8.334;2023-07-29T05:30:49;9.70;;;8.68;;
29688;SDS011;16600;47.444;8.334;2023-07-29T05:33:15;10.90;;;9.40;;
29688;SDS011;16600;47.444;8.334;2023-07-29T05:35:42;8.90;;;7.95;;
29688;SDS011;16600;47.444;8.334;2023-07-29T05:38:08;7.75;;;6.95;;
29688;SDS011;16600;47.444;8.334;2023-07-29T05:40:35;8.35;;;7.40;;
29688;SDS011;16600;47.444;8.334;2023-07-29T05:43:01;11.57;;;6.97;;
29688;SDS011;16600;47.444;8.334;2023-07-29T05:45:28;5.82;;;4.75;;
29688;SDS011;16600;47.444;8.334;2023-07-29T05:47:56;11.60;;;7.00;;
29688;SDS011;16600;47.444;8.334;2023-07-29T05:50:22;7.88;;;6.82;;
29688;SDS011;16600;47.444;8.334;2023-07-29T05:52:48;14.85;;;7.20;;
29688;SDS011;16600;47.444;8.334;2023-07-29T05:55:14;10.13;;;6.53;;
29688;SDS011;16600;47.444;8.334;2023-07-29T05:57:40;10.68;;;6.10;;
29688;SDS011;16600;47.444;8.334;2023-07-29T06:00:07;9.30;;;6.47;;
29688;SDS011;16600;47.444;8.334;2023-07-29T06:02:38;5.65;;;5.15;;
29688;SDS011;16600;47.444;8.334;2023-07-29T06:05:08;6.85;;;5.55;;
29688;SDS011;16600;47.444;8.334;2023-07-29T06:07:35;7.60;;;5.45;;
29688;SDS011;16600;47.444;8.334;2023-07-29T06:10:00;5.55;;;5.05;;
29688;SDS011;16600;47.444;8.334;2023-07-29T06:12:27;5.57;;;5.13;;
29688;SDS011;16600;47.444;8.334;2023-07-29T06:14:53;8.10;;;4.88;;
29688;SDS011;16600;47.444;8.334;2023-07-29T06:17:19;8.55;;;5.90;;
29688;SDS011;16600;47.444;8.334;2023-07-29T06:19:45;7.38;;;5.22;;
29688;SDS011;16600;47.444;8.334;2023-07-29T06:22:14;7.60;;;5.40;;
29688;SDS011;16600;47.444;8.334;2023-07-29T06:24:40;5.00;;;4.50;;
29688;SDS011;16600;47.444;8.334;2023-07-29T06:27:06;6.40;;;4.45;;
29688;SDS011;16600;47.444;8.334;2023-07-29T06:29:32;13.07;;;5.18;;
29688;SDS011;16600;47.444;8.334;2023-07-29T06:31:58;4.03;;;3.42;;
29688;SDS011;16600;47.444;8.334;2023-07-29T06:34:24;8.23;;;3.72;;
29688;SDS011;16600;47.444;8.334;2023-07-29T06:36:50;6.20;;;3.45;;
29688;SDS011;16600;47.444;8.334;2023-07-29T06:39:16;4.15;;;3.75;;
29688;SDS011;16600;47.444;8.334;2023-07-29T06:41:42;4.38;;;3.97;;
29688;SDS011;16600;47.444;8.334;2023-07-29T06:44:09;6.82;;;4.00;;
29688;SDS011;16600;47.444;8.334;2023-07-29T06:46:35;5.25;;;3.90;;
29688;SDS011;16600;47.444;8.334;2023-07-29T06:49:01;11.68;;;5.75;;
29688;SDS011;16600;47.444;8.334;2023-07-29T06:51:27;5.75;;;3.80;;
29688;SDS011;16600;47.444;8.334;2023-07-29T06:54:01;5.25;;;3.80;;
29688;SDS011;16600;47.444;8.334;2023-07-29T06:56:27;5.25;;;4.75;;
29688;SDS011;16600;47.444;8.334;2023-07-29T06:58:53;5.10;;;4.60;;
29688;SDS011;16600;47.444;8.334;2023-07-29T07:01:19;4.15;;;3.72;;
29688;SDS011;16600;47.444;8.334;2023-07-29T07:03:45;6.95;;;3.95;;
29688;SDS011;16600;47.444;8.334;2023-07-29T07:06:11;4.00;;;3.70;;
29688;SDS011;16600;47.444;8.334;2023-07-29T07:08:38;5.38;;;3.83;;
29688;SDS011;16600;47.444;8.334;2023-07-29T07:11:04;7.43;;;3.92;;
29688;SDS011;16600;47.444;8.334;2023-07-29T07:13:30;6.95;;;4.28;;
29688;SDS011;16600;47.444;8.334;2023-07-29T07:15:56;7.07;;;4.28;;
29688;SDS011;16600;47.444;8.334;2023-07-29T07:18:22;4.47;;;3.55;;
29688;SDS011;16600;47.444;8.334;2023-07-29T07:20:49;5.97;;;3.67;;
29688;SDS011;16600;47.444;8.334;2023-07-29T07:23:15;3.75;;;3.42;;
29688;SDS011;16600;47.444;8.334;2023-07-29T07:25:41;4.88;;;3.95;;
29688;SDS011;16600;47.444;8.334;2023-07-29T07:28:08;15.48;;;4.07;;
29688;SDS011;16600;47.444;8.334;2023-07-29T07:30:34;7.72;;;4.38;;
29688;SDS011;16600;47.444;8.334;2023-07-29T07:33:03;4.75;;;3.70;;
29688;SDS011;16600;47.444;8.334;2023-07-29T07:35:29;8.65;;;4.05;;
29688;SDS011;16600;47.444;8.334;2023-07-29T07:38:01;6.38;;;3.70;;
29688;SDS011;16600;47.444;8.334;2023-07-29T07:40:33;6.82;;;3.35;;
29688;SDS011;16600;47.444;8.334;2023-07-29T07:42:59;3.78;;;3.28;;
29688;SDS011;16600;47.444;8.334;2023-07-29T07:45:25;4.97;;;3.20;;
29688;SDS011;16600;47.444;8.334;2023-07-29T07:47:51;12.20;;;3.70;;
29688;SDS011;16600;47.444;8.334;2023-07-29T07:50:18;4.65;;;4.07;;
29688;SDS011;16600;47.444;8.334;2023-07-29T07:52:47;5.05;;;3.95;;
29688;SDS011;16600;47.444;8.334;2023-07-29T07:55:13;5.50;;;4.80;;
29688;SDS011;16600;47.444;8.334;2023-07-29T07:57:39;6.22;;;4.28;;
29688;SDS011;16600;47.444;8.334;2023-07-29T08:00:05;4.22;;;3.75;;
29688;SDS011;16600;47.444;8.334;2023-07-29T08:02:38;10.18;;;4.68;;
29688;SDS011;16600;47.444;8.334;2023-07-29T08:05:07;5.25;;;4.30;;
29688;SDS011;16600;47.444;8.334;2023-07-29T08:07:33;7.00;;;4.30;;
29688;SDS011;16600;47.444;8.334;2023-07-29T08:10:03;12.45;;;4.22;;
29688;SDS011;16600;47.444;8.334;2023-07-29T08:12:32;4.13;;;3.60;;
29688;SDS011;16600;47.444;8.334;2023-07-29T08:14:58;3.70;;;3.30;;
29688;SDS011;16600;47.444;8.334;2023-07-29T08:17:24;4.20;;;3.78;;
29688;SDS011;16600;47.444;8.334;2023-07-29T08:19:50;3.92;;;3.38;;
29688;SDS011;16600;47.444;8.334;2023-07-29T08:22:16;7.13;;;3.97;;
29688;SDS011;16600;47.444;8.334;2023-07-29T08:24:42;4.40;;;3.05;;
29688;SDS011;16600;47.444;8.334;2023-07-29T08:27:11;3.72;;;3.10;;
29688;SDS011;16600;47.444;8.334;2023-07-29T08:29:37;6.57;;;2.90;;
29688;SDS011;16600;47.444;8.334;2023-07-29T08:32:03;4.10;;;3.33;;
29688;SDS011;16600;47.444;8.334;2023-07-29T08:34:29;3.65;;;3.05;;
29688;SDS011;16600;47.444;8.334;2023-07-29T08:36:58;3.97;;;3.25;;
29688;SDS011;16600;47.444;8.334;2023-07-29T08:39:28;4.88;;;3.45;;
29688;SDS011;16600;47.444;8.334;2023-07-29T08:42:01;3.42;;;3.13;;
29688;SDS011;16600;47.444;8.334;2023-07-29T08:44:34;6.25;;;3.50;;
29688;SDS011;16600;47.444;8.334;2023-07-29T08:47:01;4.05;;;3.30;;
29688;SDS011;16600;47.444;8.334;2023-07-29T08:49:27;5.20;;;3.75;;
29688;SDS011;16600;47.444;8.334;2023-07-29T08:51:54;3.88;;;3.03;;
29688;SDS011;16600;47.444;8.334;2023-07-29T08:54:23;4.57;;;3.22;;
29688;SDS011;16600;47.444;8.334;2023-07-29T08:56:49;4.22;;;3.70;;
29688;SDS011;16600;47.444;8.334;2023-07-29T08:59:16;7.63;;;3.80;;
29688;SDS011;16600;47.444;8.334;2023-07-29T09:01:44;3.38;;;3.08;;
29688;SDS011;16600;47.444;8.334;2023-07-29T09:04:11;5.15;;;3.88;;
29688;SDS011;16600;47.444;8.334;2023-07-29T09:06:38;3.50;;;3.20;;
29688;SDS011;16600;47.444;8.334;2023-07-29T09:09:05;5.45;;;3.92;;
29688;SDS011;16600;47.444;8.334;2023-07-29T09:11:33;3.10;;;2.80;;
29688;SDS011;16600;47.444;8.334;2023-07-29T09:13:59;4.55;;;3.67;;
29688;SDS011;16600;47.444;8.334;2023-07-29T09:16:25;3.22;;;3.03;;
29688;SDS011;16600;47.444;8.334;2023-07-29T09:18:51;5.70;;;3.47;;
29688;SDS011;16600;47.444;8.334;2023-07-29T09:21:18;3.67;;;2.95;;
29688;SDS011;16600;47.444;8.334;2023-07-29T09:23:49;6.85;;;3.33;;
29688;SDS011;16600;47.444;8.334;2023-07-29T09:26:21;6.60;;;3.20;;
29688;SDS011;16600;47.444;8.334;2023-07-29T09:28:51;3.15;;;2.85;;
29688;SDS011;16600;47.444;8.334;2023-07-29T09:31:21;4.75;;;3.55;;
29688;SDS011;16600;47.444;8.334;2023-07-29T09:33:47;3.45;;;3.15;;
29688;SDS011;16600;47.444;8.334;2023-07-29T09:36:16;4.65;;;3.78;;
29688;SDS011;16600;47.444;8.334;2023-07-29T09:38:42;5.75;;;4.10;;
29688;SDS011;16600;47.444;8.334;2023-07-29T09:41:13;3.72;;;3.00;;
29688;SDS011;16600;47.444;8.334;2023-07-29T09:43:42;3.65;;;3.35;;
29688;SDS011;16600;47.444;8.334;2023-07-29T09:46:08;4.60;;;3.90;;
29688;SDS011;16600;47.444;8.334;2023-07-29T09:48:34;6.22;;;3.13;;
29688;SDS011;16600;47.444;8.334;2023-07-29T09:51:11;4.43;;;3.13;;
29688;SDS011;16600;47.444;8.334;2023-07-29T09:53:45;11.27;;;4.03;;
29688;SDS011;16600;47.444;8.334;2023-07-29T09:56:12;3.10;;;2.80;;
29688;SDS011;16600;47.444;8.334;2023-07-29T09:58:42;3.55;;;2.80;;
29688;SDS011;16600;47.444;8.334;2023-07-29T10:03:03;3.28;;;2.95;;
29688;SDS011;16600;47.444;8.334;2023-07-29T10:05:29;4.32;;;3.00;;
29688;SDS011;16600;47.444;8.334;2023-07-29T10:08:10;3.00;;;2.58;;
29688;SDS011;16600;47.444;8.334;2023-07-29T10:10:37;4.28;;;2.70;;
29688;SDS011;16600;47.444;8.334;2023-07-29T10:13:06;2.85;;;2.65;;
29688;SDS011;16600;47.444;8.334;2023-07-29T10:15:33;3.35;;;2.50;;
29688;SDS011;16600;47.444;8.334;2023-07-29T10:18:01;2.85;;;2.45;;
29688;SDS011;16600;47.444;8.334;2023-07-29T10:20:30;3.75;;;2.55;;
29688;SDS011;16600;47.444;8.334;2023-07-29T10:22:59;3.58;;;2.90;;
29688;SDS011;16600;47.444;8.334;2023-07-29T10:25:38;4.28;;;1.95;;
29688;SDS011;16600;47.444;8.334;2023-07-29T10:28:08;7.15;;;2.42;;
29688;SDS011;16600;47.444;8.334;2023-07-29T10:30:40;12.27;;;3.53;;
29688;SDS011;16600;47.444;8.334;2023-07-29T10:33:10;4.55;;;2.60;;
29688;SDS011;16600;47.444;8.334;2023-07-29T10:35:39;4.00;;;2.72;;
29688;SDS011;16600;47.444;8.334;2023-07-29T10:38:08;3.58;;;3.08;;
29688;SDS011;16600;47.444;8.334;2023-07-29T10:40:44;3.22;;;2.83;;
29688;SDS011;16600;47.444;8.334;2023-07-29T10:45:56;5.40;;;2.80;;
29688;SDS011;16600;47.444;8.334;2023-07-29T10:53:57;6.60;;;2.35;;
29688;SDS011;16600;47.444;8.334;2023-07-29T10:56:35;5.80;;;3.00;;
29688;SDS011;16600;47.444;8.334;2023-07-29T11:14:53;3.85;;;3.38;;
29688;SDS011;16600;47.444;8.334;2023-07-29T11:17:20;14.73;;;6.07;;
29688;SDS011;16600;47.444;8.334;2023-07-29T11:19:49;6.05;;;3.95;;
29688;SDS011;16600;47.444;8.334;2023-07-29T11:22:16;4.78;;;3.97;;
29688;SDS011;16600;47.444;8.334;2023-07-29T11:24:42;6.90;;;4.20;;
29688;SDS011;16600;47.444;8.334;2023-07-29T11:27:11;5.15;;;4.05;;
29688;SDS011;16600;47.444;8.334;2023-07-29T11:29:38;7.53;;;4.45;;
29688;SDS011;16600;47.444;8.334;2023-07-29T11:32:04;4.97;;;4.40;;
29688;SDS011;16600;47.444;8.334;2023-07-29T11:34:33;5.05;;;3.38;;
29688;SDS011;16600;47.444;8.334;2023-07-29T11:37:00;5.03;;;4.13;;
29688;SDS011;16600;47.444;8.334;2023-07-29T11:39:26;4.35;;;3.72;;
29688;SDS011;16600;47.444;8.334;2023-07-29T11:41:53;3.17;;;2.95;;
29688;SDS011;16600;47.444;8.334;2023-07-29T11:44:22;3.90;;;3.10;;
29688;SDS011;16600;47.444;8.334;2023-07-29T11:46:51;6.72;;;3.30;;
29688;SDS011;16600;47.444;8.334;2023-07-29T11:49:18;4.32;;;3.00;;
29688;SDS011;16600;47.444;8.334;2023-07-29T11:51:44;3.95;;;2.97;;
29688;SDS011;16600;47.444;8.334;2023-07-29T11:54:10;5.30;;;3.28;;
29688;SDS011;16600;47.444;8.334;2023-07-29T11:56:36;5.45;;;3.25;;
29688;SDS011;16600;47.444;8.334;2023-07-29T11:59:03;5.97;;;3.60;;
29688;SDS011;16600;47.444;8.334;2023-07-29T12:01:32;5.22;;;3.28;;
29688;SDS011;16600;47.444;8.334;2023-07-29T12:04:01;5.88;;;3.33;;
29688;SDS011;16600;47.444;8.334;2023-07-29T12:06:28;2.30;;;2.10;;
29688;SDS011;16600;47.444;8.334;2023-07-29T12:08:56;3.67;;;3.22;;
29688;SDS011;16600;47.444;8.334;2023-07-29T12:11:23;8.10;;;4.13;;
29688;SDS011;16600;47.444;8.334;2023-07-29T12:13:55;4.38;;;3.45;;
29688;SDS011;16600;47.444;8.334;2023-07-29T12:16:21;3.40;;;3.10;;
29688;SDS011;16600;47.444;8.334;2023-07-29T12:18:59;3.95;;;2.85;;
29688;SDS011;16600;47.444;8.334;2023-07-29T12:21:31;5.68;;;2.80;;
29688;SDS011;16600;47.444;8.334;2023-07-29T12:24:02;13.77;;;3.78;;
29688;SDS011;16600;47.444;8.334;2023-07-29T12:26:28;9.77;;;5.13;;
29688;SDS011;16600;47.444;8.334;2023-07-29T12:28:55;3.85;;;3.45;;
29688;SDS011;16600;47.444;8.334;2023-07-29T12:31:33;5.88;;;4.05;;
29688;SDS011;16600;47.444;8.334;2023-07-29T12:34:02;15.35;;;4.75;;
29688;SDS011;16600;47.444;8.334;2023-07-29T12:36:44;4.35;;;3.20;;
29688;SDS011;16600;47.444;8.334;2023-07-29T12:39:23;9.27;;;4.15;;
29688;SDS011;16600;47.444;8.334;2023-07-29T12:41:49;3.40;;;3.10;;
29688;SDS011;16600;47.444;8.334;2023-07-29T12:44:16;4.75;;;3.80;;
29688;SDS011;16600;47.444;8.334;2023-07-29T12:46:42;4.38;;;4.03;;
29688;SDS011;16600;47.444;8.334;2023-07-29T12:49:08;14.40;;;8.32;;
29688;SDS011;16600;47.444;8.334;2023-07-29T12:51:34;5.30;;;4.13;;
29688;SDS011;16600;47.444;8.334;2023-07-29T12:54:01;5.15;;;4.10;;
29688;SDS011;16600;47.444;8.334;2023-07-29T12:56:32;8.27;;;5.40;;
29688;SDS011;16600;47.444;8.334;2023-07-29T12:58:58;5.65;;;4.10;;
29688;SDS011;16600;47.444;8.334;2023-07-29T13:01:25;6.97;;;4.90;;
29688;SDS011;16600;47.444;8.334;2023-07-29T13:03:55;4.95;;;4.25;;
29688;SDS011;16600;47.444;8.334;2023-07-29T13:06:21;3.63;;;3.20;;
29688;SDS011;16600;47.444;8.334;2023-07-29T13:08:48;8.18;;;4.15;;
29688;SDS011;16600;47.444;8.334;2023-07-29T13:11:14;3.47;;;3.10;;
29688;SDS011;16600;47.444;8.334;2023-07-29T13:13:40;8.13;;;4.43;;
29688;SDS011;16600;47.444;8.334;2023-07-29T13:16:06;13.88;;;3.70;;
29688;SDS011;16600;47.444;8.334;2023-07-29T13:18:32;6.65;;;4.13;;
29688;SDS011;16600;47.444;8.334;2023-07-29T13:20:59;6.43;;;4.32;;
29688;SDS011;16600;47.444;8.334;2023-07-29T13:23:29;7.38;;;5.00;;
29688;SDS011;16600;47.444;8.334;2023-07-29T13:25:55;7.22;;;5.25;;
29688;SDS011;16600;47.444;8.334;2023-07-29T13:28:21;9.30;;;4.72;;
29688;SDS011;16600;47.444;8.334;2023-07-29T13:30:48;6.38;;;4.97;;
29688;SDS011;16600;47.444;8.334;2023-07-29T13:33:14;6.18;;;4.07;;
29688;SDS011;16600;47.444;8.334;2023-07-29T13:35:40;6.47;;;5.13;;
29688;SDS011;16600;47.444;8.334;2023-07-29T13:38:06;10.25;;;2.95;;
29688;SDS011;16600;47.444;8.334;2023-07-29T13:40:32;6.68;;;4.38;;
29688;SDS011;16600;47.444;8.334;2023-07-29T13:42:58;4.32;;;3.42;;
29688;SDS011;16600;47.444;8.334;2023-07-29T13:45:24;3.58;;;2.63;;
29688;SDS011;16600;47.444;8.334;2023-07-29T13:47:50;2.55;;;2.30;;
29688;SDS011;16600;47.444;8.334;2023-07-29T13:50:16;4.90;;;4.15;;
29688;SDS011;16600;47.444;8.334;2023-07-29T13:52:43;2.92;;;2.13;;
29688;SDS011;16600;47.444;8.334;2023-07-29T13:55:09;3.05;;;2.28;;
29688;SDS011;16600;47.444;8.334;2023-07-29T13:57:37;3.22;;;2.10;;
29688;SDS011;16600;47.444;8.334;2023-07-29T14:00:04;6.25;;;3.45;;
29688;SDS011;16600;47.444;8.334;2023-07-29T14:02:36;4.22;;;2.80;;
29688;SDS011;16600;47.444;8.334;2023-07-29T14:05:02;2.15;;;1.95;;
29688;SDS011;16600;47.444;8.334;2023-07-29T14:07:32;2.75;;;2.53;;
29688;SDS011;16600;47.444;8.334;2023-07-29T14:10:01;3.47;;;3.03;;
29688;SDS011;16600;47.444;8.334;2023-07-29T14:12:27;3.55;;;3.20;;
29688;SDS011;16600;47.444;8.334;2023-07-29T14:14:53;3.00;;;2.70;;
29688;SDS011;16600;47.444;8.334;2023-07-29T14:17:20;3.25;;;2.95;;
29688;SDS011;16600;47.444;8.334;2023-07-29T14:19:46;3.00;;;2.75;;
29688;SDS011;16600;47.444;8.334;2023-07-29T14:22:12;10.50;;;3.65;;
29688;SDS011;16600;47.444;8.334;2023-07-29T14:24:38;3.75;;;3.35;;
29688;SDS011;16600;47.444;8.334;2023-07-29T14:27:04;4.30;;;3.70;;
29688;SDS011;16600;47.444;8.334;2023-07-29T14:29:30;4.00;;;3.60;;
29688;SDS011;16600;47.444;8.334;2023-07-29T14:31:56;4.90;;;3.55;;
29688;SDS011;16600;47.444;8.334;2023-07-29T14:34:23;3.13;;;2.92;;
29688;SDS011;16600;47.444;8.334;2023-07-29T14:36:52;4.20;;;3.55;;
29688;SDS011;16600;47.444;8.334;2023-07-29T14:39:21;8.95;;;3.75;;
29688;SDS011;16600;47.444;8.334;2023-07-29T14:41:47;4.20;;;3.42;;
29688;SDS011;16600;47.444;8.334;2023-07-29T14:44:13;4.18;;;3.70;;
29688;SDS011;16600;47.444;8.334;2023-07-29T14:46:39;3.53;;;3.22;;
29688;SDS011;16600;47.444;8.334;2023-07-29T14:49:05;5.25;;;3.45;;
29688;SDS011;16600;47.444;8.334;2023-07-29T14:51:32;5.22;;;3.67;;
29688;SDS011;16600;47.444;8.334;2023-07-29T14:53:58;6.53;;;3.28;;
29688;SDS011;16600;47.444;8.334;2023-07-29T14:56:24;6.35;;;3.97;;
29688;SDS011;16600;47.444;8.334;2023-07-29T14:58:50;3.90;;;3.50;;
29688;SDS011;16600;47.444;8.334;2023-07-29T15:01:16;10.27;;;4.85;;
29688;SDS011;16600;47.444;8.334;2023-07-29T15:03:42;8.15;;;4.03;;
29688;SDS011;16600;47.444;8.334;2023-07-29T15:06:08;3.85;;;3.50;;
29688;SDS011;16600;47.444;8.334;2023-07-29T15:08:34;5.70;;;3.70;;
29688;SDS011;16600;47.444;8.334;2023-07-29T15:11:01;6.70;;;4.53;;
29688;SDS011;16600;47.444;8.334;2023-07-29T15:13:30;7.15;;;4.80;;
29688;SDS011;16600;47.444;8.334;2023-07-29T15:15:57;4.18;;;3.78;;
29688;SDS011;16600;47.444;8.334;2023-07-29T15:18:29;5.13;;;3.58;;
29688;SDS011;16600;47.444;8.334;2023-07-29T15:20:58;5.43;;;3.60;;
29688;SDS011;16600;47.444;8.334;2023-07-29T15:23:26;4.63;;;3.75;;
29688;SDS011;16600;47.444;8.334;2023-07-29T15:25:51;6.40;;;3.17;;
29688;SDS011;16600;47.444;8.334;2023-07-29T15:28:18;6.72;;;3.08;;
29688;SDS011;16600;47.444;8.334;2023-07-29T15:30:47;5.57;;;4.13;;
29688;SDS011;16600;47.444;8.334;2023-07-29T15:33:13;5.53;;;4.32;;
29688;SDS011;16600;47.444;8.334;2023-07-29T15:35:39;5.03;;;4.30;;
29688;SDS011;16600;47.444;8.334;2023-07-29T15:38:06;4.20;;;3.80;;
29688;SDS011;16600;47.444;8.334;2023-07-29T15:40:32;5.18;;;3.83;;
29688;SDS011;16600;47.444;8.334;2023-07-29T15:42:58;5.88;;;4.20;;
29688;SDS011;16600;47.444;8.334;2023-07-29T15:45:27;5.25;;;3.70;;
29688;SDS011;16600;47.444;8.334;2023-07-29T15:47:53;8.20;;;4.80;;
29688;SDS011;16600;47.444;8.334;2023-07-29T15:50:20;6.38;;;3.85;;
29688;SDS011;16600;47.444;8.334;2023-07-29T15:52:46;4.07;;;3.75;;
29688;SDS011;16600;47.444;8.334;2023-07-29T15:55:12;4.85;;;4.10;;
29688;SDS011;16600;47.444;8.334;2023-07-29T15:57:38;9.25;;;4.45;;
29688;SDS011;16600;47.444;8.334;2023-07-29T16:03:04;10.10;;;4.07;;
29688;SDS011;16600;47.444;8.334;2023-07-29T16:05:30;6.25;;;3.90;;
29688;SDS011;16600;47.444;8.334;2023-07-29T16:07:56;7.40;;;4.82;;
29688;SDS011;16600;47.444;8.334;2023-07-29T16:10:23;4.82;;;4.40;;
29688;SDS011;16600;47.444;8.334;2023-07-29T16:12:49;7.75;;;4.03;;
29688;SDS011;16600;47.444;8.334;2023-07-29T16:15:18;4.40;;;3.97;;
29688;SDS011;16600;47.444;8.334;2023-07-29T16:17:44;5.80;;;4.57;;
29688;SDS011;16600;47.444;8.334;2023-07-29T16:20:13;4.25;;;3.70;;
29688;SDS011;16600;47.444;8.334;2023-07-29T16:22:39;6.57;;;4.50;;
29688;SDS011;16600;47.444;8.334;2023-07-29T16:25:05;4.43;;;4.03;;
29688;SDS011;16600;47.444;8.334;2023-07-29T16:27:32;7.55;;;3.55;;
29688;SDS011;16600;47.444;8.334;2023-07-29T16:29:58;7.60;;;3.80;;
29688;SDS011;16600;47.444;8.334;2023-07-29T16:32:25;4.47;;;3.47;;
29688;SDS011;16600;47.444;8.334;2023-07-29T16:34:54;4.95;;;4.05;;
29688;SDS011;16600;47.444;8.334;2023-07-29T16:37:20;6.80;;;4.82;;
29688;SDS011;16600;47.444;8.334;2023-07-29T16:39:46;4.38;;;3.97;;
29688;SDS011;16600;47.444;8.334;2023-07-29T16:42:12;3.80;;;3.35;;
29688;SDS011;16600;47.444;8.334;2023-07-29T16:44:38;4.95;;;4.20;;
29688;SDS011;16600;47.444;8.334;2023-07-29T16:47:06;4.35;;;3.95;;
29688;SDS011;16600;47.444;8.334;2023-07-29T16:49:32;3.97;;;3.55;;
29688;SDS011;16600;47.444;8.334;2023-07-29T16:51:58;5.75;;;4.32;;
29688;SDS011;16600;47.444;8.334;2023-07-29T16:54:24;6.30;;;4.13;;
29688;SDS011;16600;47.444;8.334;2023-07-29T16:56:50;4.40;;;4.00;;
29688;SDS011;16600;47.444;8.334;2023-07-29T16:59:16;4.78;;;4.28;;
29688;SDS011;16600;47.444;8.334;2023-07-29T17:01:42;5.47;;;3.85;;
29688;SDS011;16600;47.444;8.334;2023-07-29T17:04:09;5.28;;;4.13;;
29688;SDS011;16600;47.444;8.334;2023-07-29T17:06:35;4.85;;;4.40;;
29688;SDS011;16600;47.444;8.334;2023-07-29T17:09:00;6.38;;;4.50;;
29688;SDS011;16600;47.444;8.334;2023-07-29T17:11:27;7.43;;;5.55;;
29688;SDS011;16600;47.444;8.334;2023-07-29T17:13:53;5.90;;;4.95;;
29688;SDS011;16600;47.444;8.334;2023-07-29T17:16:22;6.85;;;4.75;;
29688;SDS011;16600;47.444;8.334;2023-07-29T17:18:48;6.78;;;5.30;;
29688;SDS011;16600;47.444;8.334;2023-07-29T17:21:14;5.43;;;4.93;;
29688;SDS011;16600;47.444;8.334;2023-07-29T17:23:40;7.47;;;4.95;;
29688;SDS011;16600;47.444;8.334;2023-07-29T17:26:06;4.20;;;3.67;;
29688;SDS011;16600;47.444;8.334;2023-07-29T17:28:33;12.95;;;6.60;;
29688;SDS011;16600;47.444;8.334;2023-07-29T17:30:59;7.28;;;4.95;;
29688;SDS011;16600;47.444;8.334;2023-07-29T17:33:25;11.38;;;5.65;;
29688;SDS011;16600;47.444;8.334;2023-07-29T17:35:52;7.75;;;5.47;;
29688;SDS011;16600;47.444;8.334;2023-07-29T17:38:21;5.50;;;5.10;;
29688;SDS011;16600;47.444;8.334;2023-07-29T17:40:49;5.93;;;4.40;;
29688;SDS011;16600;47.444;8.334;2023-07-29T17:43:15;4.68;;;4.10;;
29688;SDS011;16600;47.444;8.334;2023-07-29T17:45:42;4.40;;;4.00;;
29688;SDS011;16600;47.444;8.334;2023-07-29T17:48:08;3.88;;;3.55;;
29688;SDS011;16600;47.444;8.334;2023-07-29T17:50:34;8.18;;;4.20;;
29688;SDS011;16600;47.444;8.334;2023-07-29T17:53:01;9.65;;;3.92;;
29688;SDS011;16600;47.444;8.334;2023-07-29T17:55:26;4.25;;;3.85;;
29688;SDS011;16600;47.444;8.334;2023-07-29T17:57:53;5.38;;;3.78;;
29688;SDS011;16600;47.444;8.334;2023-07-29T18:00:19;3.70;;;3.22;;
29688;SDS011;16600;47.444;8.334;2023-07-29T18:02:48;4.22;;;3.67;;
29688;SDS011;16600;47.444;8.334;2023-07-29T18:05:14;6.68;;;3.35;;
29688;SDS011;16600;47.444;8.334;2023-07-29T18:07:40;3.25;;;2.95;;
29688;SDS011;16600;47.444;8.334;2023-07-29T18:10:06;3.40;;;3.10;;
29688;SDS011;16600;47.444;8.334;2023-07-29T18:12:34;4.20;;;2.92;;
29688;SDS011;16600;47.444;8.334;2023-07-29T18:15:03;10.00;;;3.65;;
29688;SDS011;16600;47.444;8.334;2023-07-29T18:17:31;3.63;;;3.22;;
29688;SDS011;16600;47.444;8.334;2023-07-29T18:19:57;5.72;;;4.15;;
29688;SDS011;16600;47.444;8.334;2023-07-29T18:22:23;3.33;;;2.78;;
29688;SDS011;16600;47.444;8.334;2023-07-29T18:24:49;4.65;;;3.50;;
29688;SDS011;16600;47.444;8.334;2023-07-29T18:27:19;4.25;;;3.90;;
29688;SDS011;16600;47.444;8.334;2023-07-29T18:29:45;7.65;;;3.95;;
29688;SDS011;16600;47.444;8.334;2023-07-29T18:32:11;5.38;;;3.88;;
29688;SDS011;16600;47.444;8.334;2023-07-29T18:34:36;8.70;;;4.32;;
29688;SDS011;16600;47.444;8.334;2023-07-29T18:37:03;3.67;;;3.38;;
29688;SDS011;16600;47.444;8.334;2023-07-29T18:39:29;4.28;;;3.80;;